Time;durP1;ratioP1;P1;durP2;ratioP2;P2;SDS_P1;SDS_P2;PMS_P1;PMS_P2;Temp;Humidity;BMP_temperature;BMP_pressure;BME280_temperature;BME280_humidity;BME280_pressure;Samples;Min_cycle;Max_cycle;Signal;HPM_P1;HPM_P2
2024/03/04 00:00:40;;;;;;;18.50;15.00;;;12.30;99.90;;;;;;4916474;29;20207;-76
2024/03/04 00:03:07;;;;;;;19.80;16.20;;;12.30;99.90;;;;;;4899231;29;20190;-77
2024/03/04 00:05:35;;;;;;;19.35;15.60;;;12.30;99.90;;;;;;4916761;29;20548;-77
2024/03/04 00:08:04;;;;;;;17.60;15.57;;;12.30;99.90;;;;;;4916132;29;20546;-76
2024/03/04 00:10:30;;;;;;;20.50;16.75;;;12.30;99.90;;;;;;4916089;29;20186;-76
2024/03/04 00:12:56;;;;;;;18.20;15.63;;;12.30;99.90;;;;;;4914939;29;20340;-76
2024/03/04 00:15:23;;;;;;;20.58;16.13;;;12.20;99.90;;;;;;4912988;29;20177;-76
2024/03/04 00:17:50;;;;;;;21.40;17.08;;;12.20;99.90;;;;;;4910716;29;20238;-77
2024/03/04 00:20:16;;;;;;;20.77;17.15;;;12.20;99.90;;;;;;4915161;29;20285;-76
2024/03/04 00:22:45;;;;;;;20.85;17.58;;;12.20;99.90;;;;;;4915284;29;20213;-77
2024/03/04 00:25:16;;;;;;;17.70;15.25;;;12.20;99.90;;;;;;4908401;29;20593;-76
2024/03/04 00:27:48;;;;;;;20.08;16.13;;;12.10;99.90;;;;;;4898564;29;20650;-76
2024/03/04 00:30:14;;;;;;;22.10;17.50;;;12.10;99.90;;;;;;4912865;29;20269;-77
2024/03/04 00:32:40;;;;;;;21.95;17.02;;;12.10;99.90;;;;;;4914861;29;20816;-77
2024/03/04 00:35:06;;;;;;;20.58;16.52;;;12.10;99.90;;;;;;4915070;29;20228;-76
2024/03/04 00:37:32;;;;;;;22.35;17.83;;;12.10;99.90;;;;;;4889887;29;20217;-77
2024/03/04 00:39:58;;;;;;;20.35;17.48;;;12.10;99.90;;;;;;4914913;29;20196;-76
2024/03/04 00:42:25;;;;;;;23.20;18.00;;;12.10;99.90;;;;;;4915151;29;20201;-76
2024/03/04 00:44:55;;;;;;;26.00;18.80;;;12.10;99.90;;;;;;4914502;29;20582;-76
2024/03/04 00:47:21;;;;;;;25.83;20.25;;;12.00;99.90;;;;;;4912680;29;20543;-76
2024/03/04 00:49:46;;;;;;;28.30;22.37;;;12.10;99.90;;;;;;4908074;29;20193;-76
2024/03/04 00:52:13;;;;;;;24.73;18.60;;;12.00;99.90;;;;;;4915615;29;20217;-75
2024/03/04 00:54:40;;;;;;;27.90;20.38;;;11.90;99.90;;;;;;4915835;29;20586;-75
2024/03/04 00:57:07;;;;;;;23.65;18.40;;;11.90;99.90;;;;;;4912867;29;20205;-76
2024/03/04 00:59:33;;;;;;;27.55;20.70;;;11.90;99.90;;;;;;4915755;29;20663;-75
2024/03/04 01:01:59;;;;;;;23.20;19.90;;;11.90;99.90;;;;;;4907465;29;20264;-75
2024/03/04 01:04:25;;;;;;;22.23;18.27;;;11.90;99.90;;;;;;4906376;29;20262;-75
2024/03/04 01:06:52;;;;;;;23.83;19.13;;;11.90;99.90;;;;;;4912110;29;20594;-76
2024/03/04 01:09:21;;;;;;;24.85;18.30;;;11.90;99.90;;;;;;4913814;29;20241;-75
2024/03/04 01:11:47;;;;;;;26.80;19.40;;;11.90;99.90;;;;;;4896030;29;20191;-75
2024/03/04 01:14:13;;;;;;;27.95;20.98;;;11.90;99.90;;;;;;4899483;29;20201;-75
2024/03/04 01:16:42;;;;;;;28.30;20.00;;;11.90;99.90;;;;;;4917186;29;20273;-75
2024/03/04 01:19:08;;;;;;;24.90;18.67;;;11.80;99.90;;;;;;4913816;29;20698;-76
2024/03/04 01:21:34;;;;;;;22.40;18.50;;;11.80;99.90;;;;;;4908253;29;20259;-76
2024/03/04 01:24:00;;;;;;;25.27;18.38;;;11.80;99.90;;;;;;4901516;29;20226;-76
2024/03/04 01:26:26;;;;;;;25.25;18.65;;;11.70;99.90;;;;;;4918177;29;20185;-76
2024/03/04 01:28:52;;;;;;;24.20;17.87;;;11.70;99.90;;;;;;4905407;29;20674;-76
2024/03/04 01:31:21;;;;;;;26.03;17.93;;;11.70;99.90;;;;;;4914999;29;20953;-76
2024/03/04 01:33:48;;;;;;;21.15;16.80;;;11.70;99.90;;;;;;4908057;29;20979;-76
2024/03/04 01:36:14;;;;;;;23.23;17.60;;;11.70;99.90;;;;;;4897275;29;20526;-76
2024/03/04 01:38:41;;;;;;;24.02;18.25;;;11.70;99.90;;;;;;4917721;29;20190;-76
2024/03/04 01:41:07;;;;;;;21.60;17.15;;;11.70;99.90;;;;;;4922870;29;20528;-75
2024/03/04 01:43:33;;;;;;;24.30;17.50;;;11.60;99.90;;;;;;4918266;29;20210;-75
2024/03/04 01:45:59;;;;;;;24.30;16.60;;;11.60;99.90;;;;;;4916438;29;20603;-76
2024/03/04 01:48:25;;;;;;;25.10;19.90;;;11.60;99.90;;;;;;4915583;29;21175;-75
2024/03/04 01:50:54;;;;;;;20.83;16.38;;;11.60;99.90;;;;;;4915509;29;20243;-76
2024/03/04 01:53:22;;;;;;;24.63;16.88;;;11.60;99.90;;;;;;4910115;29;20210;-76
2024/03/04 01:55:59;;;;;;;26.73;18.55;;;11.50;99.90;;;;;;4903133;29;20265;-75
2024/03/04 01:58:27;;;;;;;22.25;16.65;;;11.50;99.90;;;;;;4901898;29;20190;-76
2024/03/04 02:00:53;;;;;;;23.25;17.60;;;11.50;99.90;;;;;;4903929;29;20252;-76
2024/03/04 02:03:20;;;;;;;21.42;15.93;;;11.50;99.90;;;;;;4905896;29;20567;-76
2024/03/04 02:05:48;;;;;;;29.58;20.70;;;11.50;99.90;;;;;;4897749;29;20185;-76
2024/03/04 02:08:16;;;;;;;29.05;20.65;;;11.50;99.90;;;;;;4909343;29;20178;-76
2024/03/04 02:10:42;;;;;;;25.48;19.88;;;11.50;99.90;;;;;;4903389;29;20212;-76
2024/03/04 02:13:08;;;;;;;28.48;20.65;;;11.50;99.90;;;;;;4905054;29;20220;-76
2024/03/04 02:15:37;;;;;;;26.67;19.23;;;11.50;99.90;;;;;;4913490;29;20265;-76
2024/03/04 02:18:07;;;;;;;27.95;20.63;;;11.50;99.90;;;;;;4913896;29;20937;-76
2024/03/04 02:20:40;;;;;;;23.95;20.38;;;11.50;99.90;;;;;;4907978;29;20190;-76
2024/03/04 02:23:08;;;;;;;24.30;18.92;;;11.50;99.90;;;;;;4906355;29;21309;-76
2024/03/04 02:25:39;;;;;;;30.60;20.90;;;11.50;99.90;;;;;;4913433;29;20173;-76
2024/03/04 02:28:06;;;;;;;29.02;18.73;;;11.50;99.90;;;;;;4911372;29;20229;-76
2024/03/04 02:30:33;;;;;;;24.50;20.83;;;11.50;99.90;;;;;;4900159;29;20264;-76
2024/03/04 02:33:02;;;;;;;27.52;20.52;;;11.50;99.90;;;;;;4900389;29;20206;-76
2024/03/04 02:35:35;;;;;;;22.85;18.92;;;11.50;99.90;;;;;;4914527;29;20182;-76
2024/03/04 02:38:04;;;;;;;25.80;19.95;;;11.60;99.90;;;;;;4914139;29;20217;-76
2024/03/04 02:40:30;;;;;;;29.08;21.05;;;11.60;99.90;;;;;;4915179;29;20177;-76
2024/03/04 02:42:55;;;;;;;29.35;23.38;;;11.60;99.90;;;;;;4906872;29;20555;-76
2024/03/04 02:45:22;;;;;;;28.37;21.27;;;11.60;99.90;;;;;;4900485;29;20179;-76
2024/03/04 02:47:48;;;;;;;31.85;22.10;;;11.60;99.90;;;;;;4894767;29;20241;-76
2024/03/04 02:50:13;;;;;;;30.17;22.87;;;11.60;99.90;;;;;;4900158;29;20265;-76
2024/03/04 02:52:39;;;;;;;27.13;22.70;;;11.60;99.90;;;;;;4895495;29;20790;-77
2024/03/04 02:55:06;;;;;;;24.50;19.90;;;11.60;99.90;;;;;;4895572;29;20533;-77
2024/03/04 02:57:32;;;;;;;25.58;20.30;;;11.50;99.90;;;;;;4894990;29;21775;-76
2024/03/04 02:59:58;;;;;;;25.25;20.80;;;11.60;99.90;;;;;;4895176;29;20174;-76
2024/03/04 03:02:23;;;;;;;22.00;18.83;;;11.60;99.90;;;;;;4907871;29;20196;-76
2024/03/04 03:04:49;;;;;;;23.23;19.03;;;11.50;99.90;;;;;;4898277;29;20186;-76
2024/03/04 03:07:15;;;;;;;22.50;17.60;;;11.50;99.90;;;;;;4898661;29;20194;-76
2024/03/04 03:09:41;;;;;;;19.80;17.20;;;11.50;99.90;;;;;;4882208;29;20178;-76
2024/03/04 03:12:07;;;;;;;20.50;17.43;;;11.50;99.90;;;;;;4897618;29;21013;-76
2024/03/04 03:14:36;;;;;;;21.73;17.85;;;11.50;99.90;;;;;;4899104;29;20838;-76
2024/03/04 03:17:01;;;;;;;21.42;15.27;;;11.50;99.90;;;;;;4898286;29;20197;-77
2024/03/04 03:19:28;;;;;;;23.77;18.53;;;11.50;99.90;;;;;;4899039;29;20554;-76
2024/03/04 03:21:54;;;;;;;21.73;16.50;;;11.50;99.90;;;;;;4898633;29;20179;-76
2024/03/04 03:24:20;;;;;;;22.25;18.17;;;11.50;99.90;;;;;;4898531;29;20233;-76
2024/03/04 03:26:49;;;;;;;20.83;16.40;;;11.50;99.90;;;;;;4906189;29;20182;-76
2024/03/04 03:29:17;;;;;;;23.85;18.80;;;11.50;99.90;;;;;;4905740;29;20644;-76
2024/03/04 03:31:44;;;;;;;25.15;20.13;;;11.50;99.90;;;;;;4913142;29;20182;-76
2024/03/04 03:34:10;;;;;;;24.15;18.50;;;11.60;99.90;;;;;;4897422;29;20206;-76
2024/03/04 03:36:42;;;;;;;25.90;21.77;;;11.60;99.90;;;;;;4898406;29;20285;-76
2024/03/04 03:39:09;;;;;;;21.50;17.83;;;11.50;99.90;;;;;;4897858;29;20174;-76
2024/03/04 03:41:39;;;;;;;24.17;18.67;;;11.50;99.90;;;;;;4881408;29;20178;-76
2024/03/04 03:44:05;;;;;;;24.75;19.30;;;11.50;99.90;;;;;;4897117;29;20206;-76
2024/03/04 03:46:31;;;;;;;27.52;20.65;;;11.60;99.90;;;;;;4897204;29;20225;-75
2024/03/04 03:48:57;;;;;;;26.63;19.90;;;11.60;99.90;;;;;;4897772;29;20269;-75
2024/03/04 03:51:23;;;;;;;22.90;19.50;;;11.60;99.90;;;;;;4896653;29;20586;-75
2024/03/04 03:53:48;;;;;;;26.73;21.27;;;11.60;99.90;;;;;;4897897;29;20674;-75
2024/03/04 03:56:14;;;;;;;28.47;21.50;;;11.60;99.90;;;;;;4897472;29;20733;-75
2024/03/04 03:58:40;;;;;;;27.60;21.33;;;11.60;99.90;;;;;;4896449;29;20190;-76
2024/03/04 04:01:06;;;;;;;26.20;20.77;;;11.50;99.90;;;;;;4903819;29;20190;-76
2024/03/04 04:03:33;;;;;;;24.80;19.07;;;11.50;99.90;;;;;;4898185;29;20200;-75
2024/03/04 04:06:02;;;;;;;23.52;18.58;;;11.50;99.90;;;;;;4898124;29;20189;-75
2024/03/04 04:08:28;;;;;;;22.48;17.73;;;11.50;99.90;;;;;;4897388;29;20175;-76
2024/03/04 04:10:54;;;;;;;26.73;18.87;;;11.50;99.90;;;;;;4897835;29;20382;-75
2024/03/04 04:13:23;;;;;;;26.17;20.35;;;11.50;99.90;;;;;;4896533;29;20629;-76
2024/03/04 04:15:52;;;;;;;26.40;19.05;;;11.50;99.90;;;;;;4897946;29;20673;-75
2024/03/04 04:18:17;;;;;;;24.65;18.45;;;11.50;99.90;;;;;;4897432;29;20186;-75
2024/03/04 04:20:44;;;;;;;23.63;19.00;;;11.50;99.90;;;;;;4896410;29;20183;-76
2024/03/04 04:23:11;;;;;;;23.38;16.75;;;11.50;99.90;;;;;;4896039;29;20270;-75
2024/03/04 04:25:37;;;;;;;22.20;17.25;;;11.50;99.90;;;;;;4881008;29;20197;-75
2024/03/04 04:28:03;;;;;;;29.05;19.02;;;11.50;99.90;;;;;;4895824;29;20178;-75
2024/03/04 04:30:29;;;;;;;25.30;19.23;;;11.50;99.90;;;;;;4897427;29;20185;-75
2024/03/04 04:32:55;;;;;;;22.43;17.37;;;11.40;99.90;;;;;;4908284;29;20205;-75
2024/03/04 04:35:20;;;;;;;20.57;16.87;;;11.40;99.90;;;;;;4897531;29;20315;-75
2024/03/04 04:37:46;;;;;;;21.37;16.53;;;11.40;99.90;;;;;;4879960;29;20721;-75
2024/03/04 04:40:18;;;;;;;23.40;18.57;;;11.40;99.90;;;;;;4896125;29;20186;-75
2024/03/04 04:42:44;;;;;;;22.15;17.38;;;11.40;99.90;;;;;;4896016;29;20740;-75
2024/03/04 04:45:09;;;;;;;21.77;17.30;;;11.40;99.90;;;;;;4880465;29;20684;-75
2024/03/04 04:47:35;;;;;;;26.00;17.57;;;11.40;99.90;;;;;;4896834;29;20685;-75
2024/03/04 04:50:03;;;;;;;19.13;15.73;;;11.40;99.90;;;;;;4897031;29;20210;-75
2024/03/04 04:52:28;;;;;;;22.10;17.63;;;11.40;99.90;;;;;;4896972;29;20305;-75
2024/03/04 04:54:54;;;;;;;21.80;17.40;;;11.40;99.90;;;;;;4892855;29;20277;-75
2024/03/04 04:57:20;;;;;;;22.63;17.00;;;11.40;99.90;;;;;;4895356;29;20679;-75
2024/03/04 04:59:46;;;;;;;18.40;16.20;;;11.30;99.90;;;;;;4893014;29;20183;-75
2024/03/04 05:02:12;;;;;;;21.13;15.43;;;11.30;99.90;;;;;;4895245;29;20599;-75
2024/03/04 05:04:37;;;;;;;26.50;19.47;;;11.30;99.90;;;;;;4892316;29;20260;-75
2024/03/04 05:07:04;;;;;;;22.37;17.87;;;11.30;99.90;;;;;;4895525;29;20625;-75
2024/03/04 05:09:29;;;;;;;22.50;19.20;;;11.30;99.90;;;;;;4899553;29;20200;-75
2024/03/04 05:11:55;;;;;;;23.13;18.90;;;11.30;99.90;;;;;;4899964;29;20178;-75
2024/03/04 05:14:21;;;;;;;19.37;15.27;;;11.30;99.90;;;;;;4896704;29;20568;-75
2024/03/04 05:16:47;;;;;;;23.95;18.25;;;11.30;99.90;;;;;;4896744;29;20285;-75
2024/03/04 05:19:13;;;;;;;21.10;18.73;;;11.20;99.90;;;;;;4894917;29;20189;-75
2024/03/04 05:21:39;;;;;;;24.80;17.33;;;11.20;99.90;;;;;;4894880;29;20290;-75
2024/03/04 05:24:05;;;;;;;23.00;17.70;;;11.20;99.90;;;;;;4895130;29;20661;-75
2024/03/04 05:26:31;;;;;;;20.70;16.70;;;11.30;99.90;;;;;;4896840;29;20178;-75
2024/03/04 05:28:56;;;;;;;18.47;16.33;;;11.20;99.90;;;;;;4894307;29;20949;-75
2024/03/04 05:31:22;;;;;;;19.33;16.33;;;11.30;99.90;;;;;;4896313;29;20688;-75
2024/03/04 05:33:49;;;;;;;20.20;16.80;;;11.20;99.90;;;;;;4894538;29;20198;-75
2024/03/04 05:36:14;;;;;;;23.63;16.63;;;11.20;99.90;;;;;;4905729;29;20316;-75
2024/03/04 05:38:40;;;;;;;20.80;15.70;;;11.20;99.90;;;;;;4899842;29;20175;-75
2024/03/04 05:41:06;;;;;;;19.30;14.50;;;11.20;99.90;;;;;;4894720;29;20269;-75
2024/03/04 05:43:31;;;;;;;16.97;14.90;;;11.20;99.90;;;;;;4894701;29;20198;-76
2024/03/04 05:45:57;;;;;;;15.67;13.13;;;11.20;99.90;;;;;;4894879;29;20512;-75
2024/03/04 05:48:23;;;;;;;15.90;11.30;;;11.20;99.90;;;;;;4894471;29;20178;-75
2024/03/04 05:50:49;;;;;;;14.97;12.20;;;11.20;99.90;;;;;;4895614;29;20652;-76
2024/03/04 05:53:15;;;;;;;15.20;11.37;;;11.20;99.90;;;;;;4879039;29;20681;-75
2024/03/04 05:55:42;;;;;;;13.10;11.63;;;11.20;99.90;;;;;;4879226;29;20185;-75
2024/03/04 05:58:09;;;;;;;13.43;11.63;;;11.10;99.90;;;;;;4895257;29;20213;-75
2024/03/04 06:00:35;;;;;;;15.50;10.70;;;11.10;99.90;;;;;;4900158;29;20201;-75
2024/03/04 06:03:01;;;;;;;12.07;9.50;;;11.10;99.90;;;;;;4887901;29;20238;-75
2024/03/04 06:05:27;;;;;;;13.53;10.43;;;11.10;99.90;;;;;;4897564;29;20582;-74
2024/03/04 06:07:57;;;;;;;16.57;12.20;;;11.10;99.90;;;;;;4914216;29;20177;-75
2024/03/04 06:10:23;;;;;;;14.40;10.77;;;11.10;99.90;;;;;;4913198;29;20196;-75
2024/03/04 06:12:49;;;;;;;11.93;9.57;;;11.10;99.90;;;;;;4910507;29;20205;-75
2024/03/04 06:15:14;;;;;;;10.90;8.60;;;11.10;99.90;;;;;;4914439;29;20876;-75
2024/03/04 06:17:40;;;;;;;12.10;9.38;;;11.10;99.90;;;;;;4908283;29;20715;-75
2024/03/04 06:20:09;;;;;;;9.13;8.03;;;11.10;99.90;;;;;;4912711;29;20185;-75
2024/03/04 06:22:42;;;;;;;11.05;8.63;;;11.10;99.90;;;;;;4901537;29;20206;-75
2024/03/04 06:25:08;;;;;;;8.50;7.32;;;11.10;99.90;;;;;;4912332;29;20186;-75
2024/03/04 06:27:33;;;;;;;13.27;8.10;;;11.20;99.90;;;;;;4913939;29;20252;-75
2024/03/04 06:30:00;;;;;;;10.90;8.17;;;11.20;99.90;;;;;;4912918;29;20593;-75
2024/03/04 06:32:26;;;;;;;13.70;5.78;;;11.20;99.90;;;;;;4914464;29;20571;-75
2024/03/04 06:34:52;;;;;;;8.37;6.40;;;11.20;99.90;;;;;;4906381;29;20177;-75
2024/03/04 06:37:18;;;;;;;8.15;5.35;;;11.20;99.90;;;;;;4912447;29;20649;-75
2024/03/04 06:39:47;;;;;;;8.23;6.83;;;11.20;99.90;;;;;;4913141;29;20185;-75
2024/03/04 06:42:13;;;;;;;7.50;4.55;;;11.20;99.90;;;;;;4917043;29;20245;-75
2024/03/04 06:44:40;;;;;;;9.57;4.70;;;11.20;99.90;;;;;;4911879;29;20186;-79
2024/03/04 06:47:06;;;;;;;7.95;6.07;;;11.20;99.90;;;;;;4901220;29;20273;-79
2024/03/04 06:49:31;;;;;;;7.90;6.13;;;11.20;99.90;;;;;;4910504;29;20281;-79
2024/03/04 06:51:57;;;;;;;7.10;6.17;;;11.20;99.90;;;;;;4903039;29;21164;-79
2024/03/04 06:54:23;;;;;;;9.37;6.20;;;11.20;99.90;;;;;;4905383;29;20208;-78
2024/03/04 06:56:48;;;;;;;6.80;5.20;;;11.10;99.90;;;;;;4904957;29;20677;-79
2024/03/04 06:59:14;;;;;;;10.03;5.53;;;11.20;99.90;;;;;;4901718;29;20228;-79
2024/03/04 07:01:40;;;;;;;10.07;5.57;;;11.10;99.90;;;;;;4912552;29;20181;-79
2024/03/04 07:04:06;;;;;;;5.50;4.23;;;11.10;99.90;;;;;;4910769;29;20213;-79
2024/03/04 07:06:32;;;;;;;8.43;5.90;;;11.10;99.90;;;;;;4910624;29;20607;-79
2024/03/04 07:08:57;;;;;;;8.63;5.20;;;11.10;99.90;;;;;;4907295;29;20260;-79
2024/03/04 07:11:23;;;;;;;6.60;3.87;;;11.10;99.90;;;;;;4909494;29;20185;-75
2024/03/04 07:13:48;;;;;;;7.00;4.63;;;11.10;99.90;;;;;;4891189;29;20277;-75
2024/03/04 07:16:15;;;;;;;8.10;6.37;;;11.10;99.90;;;;;;4913440;29;20190;-75
2024/03/04 07:18:42;;;;;;;5.45;4.90;;;11.10;99.90;;;;;;4915837;29;20182;-74
2024/03/04 07:21:08;;;;;;;6.22;4.25;;;11.10;99.90;;;;;;4908260;29;20213;-74
2024/03/04 07:23:33;;;;;;;7.30;5.70;;;11.10;99.90;;;;;;4916267;29;20300;-74
2024/03/04 07:26:05;;;;;;;6.40;4.37;;;11.10;99.90;;;;;;4917761;29;20306;-74
2024/03/04 07:28:32;;;;;;;5.38;4.50;;;11.10;99.90;;;;;;4916489;29;20275;-75
2024/03/04 07:30:59;;;;;;;7.20;5.13;;;11.20;99.90;;;;;;4915836;29;20268;-73
2024/03/04 07:33:25;;;;;;;6.75;5.07;;;11.20;99.90;;;;;;4908480;29;20205;-73
2024/03/04 07:35:50;;;;;;;5.73;4.27;;;11.20;99.90;;;;;;4910921;29;20246;-73
2024/03/04 07:38:16;;;;;;;7.50;4.60;;;11.20;99.90;;;;;;4929758;29;20255;-73
2024/03/04 07:40:42;;;;;;;4.80;4.10;;;11.20;99.90;;;;;;4917118;29;20285;-74
2024/03/04 07:43:08;;;;;;;7.33;5.10;;;11.20;99.90;;;;;;4909210;29;20349;-74
2024/03/04 07:45:33;;;;;;;7.13;5.50;;;11.20;99.90;;;;;;4916866;29;20174;-74
2024/03/04 07:47:59;;;;;;;4.70;3.53;;;11.30;99.90;;;;;;4912099;29;20174;-74
2024/03/04 07:50:25;;;;;;;7.67;3.80;;;11.30;99.90;;;;;;4913013;29;20640;-74
2024/03/04 07:52:50;;;;;;;4.80;3.80;;;11.40;99.90;;;;;;4910753;29;20245;-73
2024/03/04 07:55:16;;;;;;;4.70;4.20;;;11.40;99.90;;;;;;4908712;29;20247;-74
2024/03/04 07:57:44;;;;;;;6.90;4.27;;;11.50;99.90;;;;;;4916389;29;20646;-74
2024/03/04 08:00:11;;;;;;;5.22;4.15;;;11.50;99.90;;;;;;4907958;29;20811;-73
2024/03/04 08:02:37;;;;;;;5.28;3.17;;;11.60;99.90;;;;;;4903202;29;20201;-74
2024/03/04 08:05:05;;;;;;;4.47;3.85;;;11.60;99.90;;;;;;4921155;29;20182;-74
2024/03/04 08:07:31;;;;;;;4.70;4.20;;;11.60;99.90;;;;;;4913309;29;20188;-74
2024/03/04 08:09:57;;;;;;;6.00;4.50;;;11.70;99.90;;;;;;4914837;29;20165;-74
2024/03/04 08:12:23;;;;;;;8.20;4.90;;;11.70;99.90;;;;;;4904966;29;20775;-74
2024/03/04 08:14:49;;;;;;;7.00;4.10;;;11.70;99.90;;;;;;4916234;29;20185;-73
2024/03/04 08:17:17;;;;;;;5.47;4.00;;;11.80;99.90;;;;;;4907486;29;20699;-73
2024/03/04 08:19:44;;;;;;;6.65;4.90;;;11.80;99.90;;;;;;4915477;29;20178;-73
2024/03/04 08:22:09;;;;;;;5.13;4.63;;;11.80;99.90;;;;;;4891150;29;20645;-73
2024/03/04 08:24:35;;;;;;;6.50;4.87;;;11.80;99.90;;;;;;4896672;29;20182;-74
2024/03/04 08:27:01;;;;;;;6.23;5.37;;;11.80;99.90;;;;;;4896418;29;20621;-73
2024/03/04 08:29:26;;;;;;;7.50;5.20;;;11.80;99.90;;;;;;4913196;29;20178;-73
2024/03/04 08:31:53;;;;;;;6.50;5.37;;;11.80;99.90;;;;;;4901017;29;20186;-72
2024/03/04 08:34:19;;;;;;;5.80;4.10;;;11.80;99.90;;;;;;4904650;29;20305;-75
2024/03/04 08:36:45;;;;;;;7.22;5.55;;;11.80;99.90;;;;;;4910983;29;20213;-75
2024/03/04 08:39:10;;;;;;;6.53;5.03;;;11.80;99.90;;;;;;4910910;29;20189;-75
2024/03/04 08:41:45;;;;;;;5.77;4.80;;;11.90;99.90;;;;;;4901218;29;20653;-75
2024/03/04 08:44:11;;;;;;;4.95;4.30;;;11.80;99.90;;;;;;4907052;29;20203;-73
2024/03/04 08:46:36;;;;;;;6.20;3.97;;;11.90;99.90;;;;;;4916173;29;20185;-74
2024/03/04 08:49:02;;;;;;;5.67;4.23;;;11.90;99.90;;;;;;4906670;29;20595;-73
2024/03/04 08:51:28;;;;;;;5.30;3.73;;;12.00;99.90;;;;;;4914870;29;20193;-74
2024/03/04 08:53:54;;;;;;;8.50;4.90;;;12.00;99.90;;;;;;4883289;29;20210;-74
2024/03/04 08:56:19;;;;;;;3.80;3.40;;;12.00;99.90;;;;;;4916594;29;20601;-74
2024/03/04 08:58:45;;;;;;;5.50;3.60;;;12.00;99.90;;;;;;4920131;29;20301;-73
2024/03/04 09:01:11;;;;;;;6.00;4.03;;;12.10;99.90;;;;;;4905357;29;20564;-73
2024/03/04 09:03:40;;;;;;;6.30;4.83;;;12.10;99.90;;;;;;4914233;29;20660;-74
2024/03/04 09:06:13;;;;;;;5.70;4.80;;;12.10;99.90;;;;;;4924790;29;20534;-73
2024/03/04 09:08:39;;;;;;;6.85;4.30;;;12.10;99.90;;;;;;4910210;29;20689;-73
2024/03/04 09:11:05;;;;;;;6.50;5.10;;;12.20;99.90;;;;;;4916689;29;20264;-73
2024/03/04 09:13:30;;;;;;;9.27;5.07;;;12.30;99.90;;;;;;4914175;29;20185;-73
2024/03/04 09:15:56;;;;;;;4.73;4.33;;;12.30;99.90;;;;;;4906860;29;20189;-73
2024/03/04 09:18:21;;;;;;;4.43;3.70;;;12.40;99.90;;;;;;4903934;29;20213;-73
2024/03/04 09:20:47;;;;;;;6.53;4.47;;;12.50;99.90;;;;;;4909827;29;20178;-73
2024/03/04 09:23:14;;;;;;;5.23;4.23;;;12.60;99.90;;;;;;4913815;29;20219;-74
2024/03/04 09:25:40;;;;;;;5.30;4.50;;;12.70;99.90;;;;;;4914143;29;20178;-73
2024/03/04 09:28:07;;;;;;;5.93;3.67;;;12.70;99.90;;;;;;4905819;29;20208;-73
2024/03/04 09:30:33;;;;;;;6.85;5.05;;;12.80;99.90;;;;;;4914923;29;20245;-74
2024/03/04 09:32:58;;;;;;;6.33;4.30;;;12.80;99.90;;;;;;4913658;29;20197;-73
2024/03/04 09:35:24;;;;;;;5.10;4.07;;;12.80;99.90;;;;;;4914945;29;21140;-73
2024/03/04 09:37:50;;;;;;;4.80;4.00;;;12.80;99.90;;;;;;4906980;29;20293;-74
2024/03/04 09:40:16;;;;;;;4.60;3.90;;;12.90;99.90;;;;;;4903505;29;20220;-74
2024/03/04 09:42:47;;;;;;;4.53;3.43;;;12.90;99.90;;;;;;4909935;29;20691;-74
2024/03/04 09:45:15;;;;;;;5.57;3.92;;;12.90;99.90;;;;;;4904567;29;21204;-74
2024/03/04 09:47:46;;;;;;;5.82;3.85;;;13.00;99.90;;;;;;4913503;29;20197;-74
2024/03/04 09:50:13;;;;;;;3.63;3.03;;;13.00;99.90;;;;;;4913173;29;20211;-74
2024/03/04 09:52:39;;;;;;;6.05;4.22;;;13.00;99.90;;;;;;4914559;29;20628;-74
2024/03/04 09:55:05;;;;;;;7.25;4.00;;;13.00;99.90;;;;;;4897852;29;20192;-74
2024/03/04 09:57:32;;;;;;;5.75;4.40;;;13.00;99.90;;;;;;4896478;29;20201;-74
2024/03/04 09:59:58;;;;;;;5.70;4.90;;;13.10;99.90;;;;;;4913691;29;20188;-74
2024/03/04 10:02:25;;;;;;;8.23;4.60;;;13.10;99.90;;;;;;4893811;29;20632;-74
2024/03/04 10:04:52;;;;;;;4.40;3.80;;;13.10;99.90;;;;;;4912394;29;20581;-75
2024/03/04 10:07:18;;;;;;;6.00;5.20;;;13.10;99.90;;;;;;4913117;29;20185;-74
2024/03/04 10:09:44;;;;;;;5.80;4.80;;;13.10;99.90;;;;;;4913236;29;20688;-74
2024/03/04 10:12:10;;;;;;;7.83;6.10;;;13.10;99.90;;;;;;4913166;29;20680;-74
2024/03/04 10:15:09;;;;;;;7.93;5.10;;;13.10;99.90;;;;;;4907055;29;20621;-75
2024/03/04 10:17:37;;;;;;;7.07;4.80;;;13.10;99.90;;;;;;4906420;29;20213;-74
2024/03/04 10:20:07;;;;;;;6.82;5.43;;;13.10;99.90;;;;;;4913526;29;20598;-74
2024/03/04 10:22:34;;;;;;;6.60;5.47;;;13.10;99.90;;;;;;4913701;29;20210;-74
2024/03/04 10:25:04;;;;;;;6.93;5.63;;;13.00;99.90;;;;;;4899829;29;20201;-74
2024/03/04 10:27:31;;;;;;;7.53;4.57;;;13.00;99.90;;;;;;4894687;29;20253;-74
2024/03/04 10:30:17;;;;;;;9.50;7.53;;;13.00;99.90;;;;;;4893225;29;20587;-74
2024/03/04 10:32:51;;;;;;;11.05;8.15;;;12.90;99.90;;;;;;4895483;29;20205;-74
2024/03/04 10:35:18;;;;;;;11.10;8.70;;;12.80;99.90;;;;;;4887017;29;20253;-73
2024/03/04 10:37:44;;;;;;;9.82;8.63;;;12.80;99.90;;;;;;4900790;29;20224;-74
2024/03/04 10:40:11;;;;;;;10.20;9.15;;;12.80;99.90;;;;;;4894264;29;20183;-74
2024/03/04 10:42:44;;;;;;;10.60;8.73;;;12.70;99.90;;;;;;4894273;29;20561;-73
2024/03/04 10:45:12;;;;;;;10.18;8.32;;;12.60;99.90;;;;;;4878728;29;20186;-74
2024/03/04 10:47:41;;;;;;;8.98;8.07;;;12.60;99.90;;;;;;4898631;29;20185;-73
2024/03/04 10:50:07;;;;;;;11.27;9.45;;;12.60;99.90;;;;;;4905632;29;20669;-74
2024/03/04 10:52:33;;;;;;;9.27;8.38;;;12.50;99.90;;;;;;4895156;29;20623;-75
2024/03/04 10:54:59;;;;;;;10.90;8.80;;;12.50;99.90;;;;;;4898290;29;20223;-75
2024/03/04 10:57:30;;;;;;;11.30;9.33;;;12.50;99.90;;;;;;4895313;29;20994;-75
2024/03/04 10:59:56;;;;;;;12.63;10.43;;;12.40;99.90;;;;;;4895556;29;20583;-75
2024/03/04 11:02:45;;;;;;;12.57;11.23;;;12.40;99.90;;;;;;4878431;29;20174;-75
2024/03/04 11:05:11;;;;;;;11.82;9.18;;;12.30;99.90;;;;;;4894220;29;20187;-75
2024/03/04 11:07:45;;;;;;;14.60;12.37;;;12.30;99.90;;;;;;4877389;29;20190;-74
2024/03/04 11:10:19;;;;;;;14.63;11.70;;;12.30;99.90;;;;;;4894150;29;20747;-75
2024/03/04 11:12:59;;;;;;;17.05;11.55;;;12.30;99.90;;;;;;4894304;29;20202;-75
2024/03/04 11:15:30;;;;;;;11.85;10.65;;;12.30;99.90;;;;;;4894202;29;20197;-75
2024/03/04 11:17:59;;;;;;;12.45;9.55;;;12.20;99.90;;;;;;4878399;29;20205;-75
2024/03/04 11:20:26;;;;;;;10.93;9.52;;;12.20;99.90;;;;;;4893716;29;20653;-75
2024/03/04 11:22:52;;;;;;;12.55;9.02;;;12.30;99.90;;;;;;4901531;29;20297;-75
2024/03/04 11:25:19;;;;;;;10.65;8.07;;;12.30;99.90;;;;;;4894037;29;20182;-75
2024/03/04 11:27:46;;;;;;;10.25;8.73;;;12.30;99.90;;;;;;4895930;29;20221;-74
2024/03/04 11:30:12;;;;;;;11.23;8.55;;;12.30;99.90;;;;;;4897514;29;20194;-75
2024/03/04 11:32:38;;;;;;;13.73;7.95;;;12.30;99.90;;;;;;4897153;29;20249;-75
2024/03/04 11:35:11;;;;;;;7.70;6.53;;;12.30;99.90;;;;;;4899009;29;20209;-75
2024/03/04 11:37:50;;;;;;;10.57;6.60;;;12.20;99.90;;;;;;4897417;29;20570;-79
2024/03/04 11:40:27;;;;;;;12.52;7.90;;;12.30;99.90;;;;;;4897361;29;20182;-79
2024/03/04 11:42:52;;;;;;;7.55;6.68;;;12.30;99.90;;;;;;4881491;29;20561;-78
2024/03/04 11:45:42;;;;;;;7.60;6.53;;;12.30;99.90;;;;;;4897894;29;20178;-78
2024/03/04 11:48:27;;;;;;;8.93;8.02;;;12.30;99.90;;;;;;4880863;29;20194;-79
2024/03/04 11:50:52;;;;;;;6.80;6.07;;;12.20;99.90;;;;;;4880463;29;20186;-78
2024/03/04 11:53:28;;;;;;;8.50;6.33;;;12.30;99.90;;;;;;4897089;29;20232;-79
2024/03/04 11:55:54;;;;;;;8.15;5.97;;;12.20;99.90;;;;;;4881674;29;20197;-79
2024/03/04 11:58:22;;;;;;;7.35;5.35;;;12.30;99.90;;;;;;4896619;29;20238;-79
2024/03/04 12:00:49;;;;;;;5.13;4.63;;;12.30;99.90;;;;;;4881487;29;20174;-78
2024/03/04 12:03:16;;;;;;;5.82;5.25;;;12.30;99.90;;;;;;4888749;29;20855;-79
2024/03/04 12:05:42;;;;;;;5.40;3.97;;;12.30;99.90;;;;;;4894269;29;20195;-79
2024/03/04 12:08:08;;;;;;;5.13;4.10;;;12.40;99.90;;;;;;4892628;29;20258;-77
2024/03/04 12:10:35;;;;;;;5.83;4.33;;;12.40;99.90;;;;;;4881390;29;20333;-79
2024/03/04 12:13:01;;;;;;;5.07;3.70;;;12.40;99.90;;;;;;4896747;29;21045;-78
2024/03/04 12:15:28;;;;;;;5.55;4.00;;;12.50;99.90;;;;;;4910796;29;20656;-79
2024/03/04 12:17:54;;;;;;;5.70;2.83;;;12.50;99.90;;;;;;4896390;29;20343;-78
2024/03/04 12:20:20;;;;;;;7.47;3.78;;;12.60;99.90;;;;;;4880770;29;20201;-78
2024/03/04 12:22:46;;;;;;;3.58;2.90;;;12.60;99.90;;;;;;4895876;29;20209;-79
2024/03/04 12:25:12;;;;;;;6.25;3.20;;;12.70;99.90;;;;;;4881207;29;20193;-79
2024/03/04 12:27:42;;;;;;;3.90;3.00;;;12.80;99.90;;;;;;4904348;29;20613;-79
2024/03/04 12:30:17;;;;;;;4.38;3.15;;;12.80;99.90;;;;;;4896423;29;20599;-79
2024/03/04 12:32:45;;;;;;;3.95;3.17;;;12.80;99.90;;;;;;4879852;29;20204;-79
2024/03/04 12:35:26;;;;;;;3.50;2.75;;;12.80;99.90;;;;;;4897551;29;20555;-78